sensor_id;sensor_type;location;lat;lon;timestamp;temperature;humidity
20891;DHT22;10605;52.968;8.844;2022-11-15T00:00:43;7.20;99.90
20891;DHT22;10605;52.968;8.844;2022-11-15T00:03:09;7.20;99.90
20891;DHT22;10605;52.968;8.844;2022-11-15T00:05:35;7.20;99.90
20891;DHT22;10605;52.968;8.844;2022-11-15T00:08:01;7.10;99.90
20891;DHT22;10605;52.968;8.844;2022-11-15T00:10:27;7.10;99.90
20891;DHT22;10605;52.968;8.844;2022-11-15T00:12:52;7.10;99.90
20891;DHT22;10605;52.968;8.844;2022-11-15T00:15:18;7.10;99.90
20891;DHT22;10605;52.968;8.844;2022-11-15T00:17:44;7.10;99.90
20891;DHT22;10605;52.968;8.844;2022-11-15T00:20:10;7.20;99.90
20891;DHT22;10605;52.968;8.844;2022-11-15T00:22:37;7.20;99.90
20891;DHT22;10605;52.968;8.844;2022-11-15T00:25:02;7.10;99.90
20891;DHT22;10605;52.968;8.844;2022-11-15T00:27:28;7.10;99.90
20891;DHT22;10605;52.968;8.844;2022-11-15T00:29:54;7.10;99.90
20891;DHT22;10605;52.968;8.844;2022-11-15T00:32:20;7.20;99.90
20891;DHT22;10605;52.968;8.844;2022-11-15T00:34:45;7.10;99.90
20891;DHT22;10605;52.968;8.844;2022-11-15T00:37:11;7.00;99.90
20891;DHT22;10605;52.968;8.844;2022-11-15T00:39:36;6.90;99.90
20891;DHT22;10605;52.968;8.844;2022-11-15T00:42:02;7.00;99.90
20891;DHT22;10605;52.968;8.844;2022-11-15T00:44:28;6.90;99.90
20891;DHT22;10605;52.968;8.844;2022-11-15T00:46:53;7.00;99.90
20891;DHT22;10605;52.968;8.844;2022-11-15T00:49:19;6.80;99.90
20891;DHT22;10605;52.968;8.844;2022-11-15T00:51:45;6.80;99.90
20891;DHT22;10605;52.968;8.844;2022-11-15T00:54:10;6.80;99.90
20891;DHT22;10605;52.968;8.844;2022-11-15T00:56:36;6.80;99.90
20891;DHT22;10605;52.968;8.844;2022-11-15T00:59:02;6.80;99.90
20891;DHT22;10605;52.968;8.844;2022-11-15T01:01:28;6.80;99.90
20891;DHT22;10605;52.968;8.844;2022-11-15T01:03:53;6.80;99.90
20891;DHT22;10605;52.968;8.844;2022-11-15T01:06:19;6.70;99.90
20891;DHT22;10605;52.968;8.844;2022-11-15T01:08:45;6.70;99.90
20891;DHT22;10605;52.968;8.844;2022-11-15T01:11:11;6.60;99.90
20891;DHT22;10605;52.968;8.844;2022-11-15T01:13:38;6.50;99.90
20891;DHT22;10605;52.968;8.844;2022-11-15T01:16:13;6.40;99.90
20891;DHT22;10605;52.968;8.844;2022-11-15T01:18:40;6.30;99.90
20891;DHT22;10605;52.968;8.844;2022-11-15T01:21:17;6.20;99.90
20891;DHT22;10605;52.968;8.844;2022-11-15T01:23:44;6.20;99.90
20891;DHT22;10605;52.968;8.844;2022-11-15T01:26:13;6.10;99.90
20891;DHT22;10605;52.968;8.844;2022-11-15T01:28:40;6.10;99.90
20891;DHT22;10605;52.968;8.844;2022-11-15T01:31:16;6.00;99.90
20891;DHT22;10605;52.968;8.844;2022-11-15T01:33:42;5.90;99.90
20891;DHT22;10605;52.968;8.844;2022-11-15T01:36:15;5.80;99.90
20891;DHT22;10605;52.968;8.844;2022-11-15T01:38:41;5.90;99.90
20891;DHT22;10605;52.968;8.844;2022-11-15T01:41:12;5.90;99.90
20891;DHT22;10605;52.968;8.844;2022-11-15T01:43:39;6.00;99.90
20891;DHT22;10605;52.968;8.844;2022-11-15T01:46:32;6.30;99.90
20891;DHT22;10605;52.968;8.844;2022-11-15T01:49:02;6.40;99.90
20891;DHT22;10605;52.968;8.844;2022-11-15T01:51:31;6.60;99.90
20891;DHT22;10605;52.968;8.844;2022-11-15T01:54:03;6.60;99.90
20891;DHT22;10605;52.968;8.844;2022-11-15T01:56:32;6.70;99.90
20891;DHT22;10605;52.968;8.844;2022-11-15T01:59:02;6.80;99.90
20891;DHT22;10605;52.968;8.844;2022-11-15T02:01:28;6.90;99.90
20891;DHT22;10605;52.968;8.844;2022-11-15T02:03:58;7.00;99.90
20891;DHT22;10605;52.968;8.844;2022-11-15T02:06:25;7.00;99.90
20891;DHT22;10605;52.968;8.844;2022-11-15T02:08:51;7.10;99.90
20891;DHT22;10605;52.968;8.844;2022-11-15T02:11:17;7.20;99.90
20891;DHT22;10605;52.968;8.844;2022-11-15T02:13:43;7.20;99.90
20891;DHT22;10605;52.968;8.844;2022-11-15T02:16:55;7.20;99.90
20891;DHT22;10605;52.968;8.844;2022-11-15T02:30:02;7.50;99.90
20891;DHT22;10605;52.968;8.844;2022-11-15T02:32:40;7.60;99.90
20891;DHT22;10605;52.968;8.844;2022-11-15T02:37:43;7.70;99.90
20891;DHT22;10605;52.968;8.844;2022-11-15T02:40:45;7.80;99.90
20891;DHT22;10605;52.968;8.844;2022-11-15T02:43:18;7.80;99.90
20891;DHT22;10605;52.968;8.844;2022-11-15T02:46:18;7.90;99.90
20891;DHT22;10605;52.968;8.844;2022-11-15T02:48:49;8.00;99.90
20891;DHT22;10605;52.968;8.844;2022-11-15T02:51:16;8.00;99.90
20891;DHT22;10605;52.968;8.844;2022-11-15T02:53:43;8.00;99.90
20891;DHT22;10605;52.968;8.844;2022-11-15T02:56:09;8.10;99.90
20891;DHT22;10605;52.968;8.844;2022-11-15T03:11:49;8.10;99.90
20891;DHT22;10605;52.968;8.844;2022-11-15T03:14:32;8.10;99.90
20891;DHT22;10605;52.968;8.844;2022-11-15T03:19:55;8.10;99.90
20891;DHT22;10605;52.968;8.844;2022-11-15T03:22:24;8.20;99.90
20891;DHT22;10605;52.968;8.844;2022-11-15T03:24:59;8.30;99.90
20891;DHT22;10605;52.968;8.844;2022-11-15T03:27:31;8.20;99.90
20891;DHT22;10605;52.968;8.844;2022-11-15T03:30:02;8.30;99.90
20891;DHT22;10605;52.968;8.844;2022-11-15T03:32:31;8.30;99.90
20891;DHT22;10605;52.968;8.844;2022-11-15T03:35:12;8.40;99.90
20891;DHT22;10605;52.968;8.844;2022-11-15T03:37:56;8.40;99.90
20891;DHT22;10605;52.968;8.844;2022-11-15T03:40:29;8.40;99.90
20891;DHT22;10605;52.968;8.844;2022-11-15T03:43:15;8.40;99.90
20891;DHT22;10605;52.968;8.844;2022-11-15T03:45:48;8.40;99.90
20891;DHT22;10605;52.968;8.844;2022-11-15T03:48:25;8.50;99.90
20891;DHT22;10605;52.968;8.844;2022-11-15T03:50:52;8.50;99.90
20891;DHT22;10605;52.968;8.844;2022-11-15T03:53:17;8.50;99.90
20891;DHT22;10605;52.968;8.844;2022-11-15T03:55:43;8.60;99.90
20891;DHT22;10605;52.968;8.844;2022-11-15T03:58:09;8.60;99.90
20891;DHT22;10605;52.968;8.844;2022-11-15T04:00:35;8.60;99.90
20891;DHT22;10605;52.968;8.844;2022-11-15T04:03:01;8.60;99.90
20891;DHT22;10605;52.968;8.844;2022-11-15T04:05:26;8.60;99.90
20891;DHT22;10605;52.968;8.844;2022-11-15T04:07:52;8.70;99.90
20891;DHT22;10605;52.968;8.844;2022-11-15T04:10:18;8.70;99.90
20891;DHT22;10605;52.968;8.844;2022-11-15T04:12:45;8.70;99.90
20891;DHT22;10605;52.968;8.844;2022-11-15T04:15:18;8.80;99.90
20891;DHT22;10605;52.968;8.844;2022-11-15T04:17:49;8.80;99.90
20891;DHT22;10605;52.968;8.844;2022-11-15T04:20:41;8.80;99.90
20891;DHT22;10605;52.968;8.844;2022-11-15T04:23:25;8.90;99.90
20891;DHT22;10605;52.968;8.844;2022-11-15T04:26:20;8.90;99.90
20891;DHT22;10605;52.968;8.844;2022-11-15T04:28:47;8.90;99.90
20891;DHT22;10605;52.968;8.844;2022-11-15T04:31:32;9.00;99.90
20891;DHT22;10605;52.968;8.844;2022-11-15T04:33:57;9.00;99.90
20891;DHT22;10605;52.968;8.844;2022-11-15T04:36:23;9.00;99.90
20891;DHT22;10605;52.968;8.844;2022-11-15T04:39:07;9.00;99.90
20891;DHT22;10605;52.968;8.844;2022-11-15T04:41:33;9.00;99.90
20891;DHT22;10605;52.968;8.844;2022-11-15T04:43:59;9.00;99.90
20891;DHT22;10605;52.968;8.844;2022-11-15T04:46:25;9.00;99.90
20891;DHT22;10605;52.968;8.844;2022-11-15T04:48:51;9.00;99.90
20891;DHT22;10605;52.968;8.844;2022-11-15T04:51:17;9.00;99.90
20891;DHT22;10605;52.968;8.844;2022-11-15T04:53:43;9.10;99.90
20891;DHT22;10605;52.968;8.844;2022-11-15T04:56:09;9.10;99.90
20891;DHT22;10605;52.968;8.844;2022-11-15T04:58:34;9.10;99.90
20891;DHT22;10605;52.968;8.844;2022-11-15T05:01:26;9.10;99.90
20891;DHT22;10605;52.968;8.844;2022-11-15T05:03:52;9.20;99.90
20891;DHT22;10605;52.968;8.844;2022-11-15T05:06:36;9.20;99.90
20891;DHT22;10605;52.968;8.844;2022-11-15T05:09:02;9.10;99.90
20891;DHT22;10605;52.968;8.844;2022-11-15T05:11:28;9.20;99.90
20891;DHT22;10605;52.968;8.844;2022-11-15T05:13:54;9.20;99.90
20891;DHT22;10605;52.968;8.844;2022-11-15T05:16:20;9.20;99.90
20891;DHT22;10605;52.968;8.844;2022-11-15T05:18:46;9.20;99.90
20891;DHT22;10605;52.968;8.844;2022-11-15T05:21:14;9.20;99.90
20891;DHT22;10605;52.968;8.844;2022-11-15T05:23:40;9.20;99.90
20891;DHT22;10605;52.968;8.844;2022-11-15T05:26:07;9.20;99.90
20891;DHT22;10605;52.968;8.844;2022-11-15T05:28:33;9.20;99.90
20891;DHT22;10605;52.968;8.844;2022-11-15T05:31:11;9.30;99.90
20891;DHT22;10605;52.968;8.844;2022-11-15T05:33:40;9.30;99.90
20891;DHT22;10605;52.968;8.844;2022-11-15T05:38:32;9.40;99.90
20891;DHT22;10605;52.968;8.844;2022-11-15T05:41:00;9.40;99.90
20891;DHT22;10605;52.968;8.844;2022-11-15T05:43:29;9.40;99.90
20891;DHT22;10605;52.968;8.844;2022-11-15T05:45:57;9.50;99.90
20891;DHT22;10605;52.968;8.844;2022-11-15T05:48:24;9.50;99.90
20891;DHT22;10605;52.968;8.844;2022-11-15T05:50:50;9.50;99.90
20891;DHT22;10605;52.968;8.844;2022-11-15T05:53:19;9.50;99.90
20891;DHT22;10605;52.968;8.844;2022-11-15T05:55:45;9.50;99.90
20891;DHT22;10605;52.968;8.844;2022-11-15T05:58:11;9.50;99.90
20891;DHT22;10605;52.968;8.844;2022-11-15T06:00:37;9.50;99.90
20891;DHT22;10605;52.968;8.844;2022-11-15T06:03:02;9.50;99.90
20891;DHT22;10605;52.968;8.844;2022-11-15T06:05:28;9.50;99.90
20891;DHT22;10605;52.968;8.844;2022-11-15T06:07:57;9.60;99.90
20891;DHT22;10605;52.968;8.844;2022-11-15T06:10:24;9.50;99.90
20891;DHT22;10605;52.968;8.844;2022-11-15T06:13:00;9.60;99.90
20891;DHT22;10605;52.968;8.844;2022-11-15T06:15:26;9.50;99.90
20891;DHT22;10605;52.968;8.844;2022-11-15T06:17:52;9.50;99.90
20891;DHT22;10605;52.968;8.844;2022-11-15T06:20:23;9.60;99.90
20891;DHT22;10605;52.968;8.844;2022-11-15T06:22:49;9.60;99.90
20891;DHT22;10605;52.968;8.844;2022-11-15T06:25:14;9.60;99.90
20891;DHT22;10605;52.968;8.844;2022-11-15T06:27:40;9.60;99.90
20891;DHT22;10605;52.968;8.844;2022-11-15T06:30:09;9.60;99.90
20891;DHT22;10605;52.968;8.844;2022-11-15T06:32:35;9.70;99.90
20891;DHT22;10605;52.968;8.844;2022-11-15T06:35:00;9.70;99.90
20891;DHT22;10605;52.968;8.844;2022-11-15T06:37:26;9.70;99.90
20891;DHT22;10605;52.968;8.844;2022-11-15T06:39:52;9.70;99.90
20891;DHT22;10605;52.968;8.844;2022-11-15T06:42:17;9.70;99.90
20891;DHT22;10605;52.968;8.844;2022-11-15T06:44:43;9.70;99.90
20891;DHT22;10605;52.968;8.844;2022-11-15T06:47:09;9.70;99.90
20891;DHT22;10605;52.968;8.844;2022-11-15T06:49:34;9.60;99.90
20891;DHT22;10605;52.968;8.844;2022-11-15T06:52:00;9.60;99.90
20891;DHT22;10605;52.968;8.844;2022-11-15T06:54:26;9.60;99.90
20891;DHT22;10605;52.968;8.844;2022-11-15T06:56:51;9.50;99.90
20891;DHT22;10605;52.968;8.844;2022-11-15T06:59:17;9.50;99.90
20891;DHT22;10605;52.968;8.844;2022-11-15T07:01:43;9.50;99.90
20891;DHT22;10605;52.968;8.844;2022-11-15T07:04:09;9.50;99.90
20891;DHT22;10605;52.968;8.844;2022-11-15T07:06:34;9.60;99.90
20891;DHT22;10605;52.968;8.844;2022-11-15T07:09:02;9.60;99.90
20891;DHT22;10605;52.968;8.844;2022-11-15T07:11:28;9.70;99.90
20891;DHT22;10605;52.968;8.844;2022-11-15T07:13:54;9.80;99.90
20891;DHT22;10605;52.968;8.844;2022-11-15T07:16:19;9.80;99.90
20891;DHT22;10605;52.968;8.844;2022-11-15T07:18:45;10.00;99.90
20891;DHT22;10605;52.968;8.844;2022-11-15T07:21:20;10.00;99.90
20891;DHT22;10605;52.968;8.844;2022-11-15T07:23:46;10.10;99.90
20891;DHT22;10605;52.968;8.844;2022-11-15T07:26:12;10.20;99.90
20891;DHT22;10605;52.968;8.844;2022-11-15T07:28:40;10.20;99.90
20891;DHT22;10605;52.968;8.844;2022-11-15T07:31:07;10.20;99.90
20891;DHT22;10605;52.968;8.844;2022-11-15T07:33:34;10.20;99.90
20891;DHT22;10605;52.968;8.844;2022-11-15T07:36:01;10.30;99.90
20891;DHT22;10605;52.968;8.844;2022-11-15T07:38:28;10.30;99.90
20891;DHT22;10605;52.968;8.844;2022-11-15T07:41:02;10.40;99.90
20891;DHT22;10605;52.968;8.844;2022-11-15T07:43:28;10.50;99.90
20891;DHT22;10605;52.968;8.844;2022-11-15T07:45:55;10.70;99.90
20891;DHT22;10605;52.968;8.844;2022-11-15T07:48:21;10.80;99.90
20891;DHT22;10605;52.968;8.844;2022-11-15T07:50:47;11.00;99.90
20891;DHT22;10605;52.968;8.844;2022-11-15T07:53:12;11.50;99.90
20891;DHT22;10605;52.968;8.844;2022-11-15T07:55:40;12.00;99.90
20891;DHT22;10605;52.968;8.844;2022-11-15T07:58:09;12.10;99.90
20891;DHT22;10605;52.968;8.844;2022-11-15T08:00:36;12.20;99.90
20891;DHT22;10605;52.968;8.844;2022-11-15T08:03:13;12.50;99.90
20891;DHT22;10605;52.968;8.844;2022-11-15T08:05:39;13.00;99.90
20891;DHT22;10605;52.968;8.844;2022-11-15T08:08:07;13.30;99.90
20891;DHT22;10605;52.968;8.844;2022-11-15T08:10:33;13.60;99.90
20891;DHT22;10605;52.968;8.844;2022-11-15T08:13:06;13.80;99.90
20891;DHT22;10605;52.968;8.844;2022-11-15T08:15:33;13.70;99.90
20891;DHT22;10605;52.968;8.844;2022-11-15T08:18:01;13.60;99.90
20891;DHT22;10605;52.968;8.844;2022-11-15T08:20:28;13.30;99.90
20891;DHT22;10605;52.968;8.844;2022-11-15T08:22:59;13.10;99.90
20891;DHT22;10605;52.968;8.844;2022-11-15T08:25:26;13.10;99.90
20891;DHT22;10605;52.968;8.844;2022-11-15T08:27:56;12.90;99.90
20891;DHT22;10605;52.968;8.844;2022-11-15T08:30:23;13.00;99.90
20891;DHT22;10605;52.968;8.844;2022-11-15T08:32:50;12.80;99.90
20891;DHT22;10605;52.968;8.844;2022-11-15T08:35:16;12.80;99.90
20891;DHT22;10605;52.968;8.844;2022-11-15T08:37:42;12.90;99.90
20891;DHT22;10605;52.968;8.844;2022-11-15T08:40:08;12.90;99.90
20891;DHT22;10605;52.968;8.844;2022-11-15T08:42:35;12.80;99.90
20891;DHT22;10605;52.968;8.844;2022-11-15T08:45:01;12.80;99.90
20891;DHT22;10605;52.968;8.844;2022-11-15T08:47:26;12.60;99.90
20891;DHT22;10605;52.968;8.844;2022-11-15T08:49:52;12.50;99.90
20891;DHT22;10605;52.968;8.844;2022-11-15T08:52:18;12.40;99.90
20891;DHT22;10605;52.968;8.844;2022-11-15T08:54:44;12.40;99.90
20891;DHT22;10605;52.968;8.844;2022-11-15T08:57:10;12.30;99.90
20891;DHT22;10605;52.968;8.844;2022-11-15T08:59:36;12.30;99.90
20891;DHT22;10605;52.968;8.844;2022-11-15T09:02:03;12.30;99.90
20891;DHT22;10605;52.968;8.844;2022-11-15T09:04:29;12.30;99.90
20891;DHT22;10605;52.968;8.844;2022-11-15T09:06:55;12.30;99.90
20891;DHT22;10605;52.968;8.844;2022-11-15T09:09:20;12.40;99.90
20891;DHT22;10605;52.968;8.844;2022-11-15T09:11:46;12.40;99.90
20891;DHT22;10605;52.968;8.844;2022-11-15T09:14:13;12.50;99.90
20891;DHT22;10605;52.968;8.844;2022-11-15T09:16:39;12.50;99.90
20891;DHT22;10605;52.968;8.844;2022-11-15T09:19:04;12.50;99.90
20891;DHT22;10605;52.968;8.844;2022-11-15T09:21:31;12.60;99.90
20891;DHT22;10605;52.968;8.844;2022-11-15T09:23:57;12.60;99.90
20891;DHT22;10605;52.968;8.844;2022-11-15T09:26:23;12.70;99.90
20891;DHT22;10605;52.968;8.844;2022-11-15T09:28:48;12.70;99.90
20891;DHT22;10605;52.968;8.844;2022-11-15T09:31:14;12.70;99.90
20891;DHT22;10605;52.968;8.844;2022-11-15T09:33:43;12.80;99.90
20891;DHT22;10605;52.968;8.844;2022-11-15T09:36:09;12.70;99.90
20891;DHT22;10605;52.968;8.844;2022-11-15T09:38:35;12.80;99.90
20891;DHT22;10605;52.968;8.844;2022-11-15T09:49:14;13.70;99.90
20891;DHT22;10605;52.968;8.844;2022-11-15T09:51:45;14.00;99.90
20891;DHT22;10605;52.968;8.844;2022-11-15T09:54:31;14.80;99.90
20891;DHT22;10605;52.968;8.844;2022-11-15T10:05:10;15.60;99.90
20891;DHT22;10605;52.968;8.844;2022-11-15T10:10:59;15.00;99.90
20891;DHT22;10605;52.968;8.844;2022-11-15T10:13:36;14.70;99.90
20891;DHT22;10605;52.968;8.844;2022-11-15T10:18:43;14.50;99.90
20891;DHT22;10605;52.968;8.844;2022-11-15T10:21:26;14.40;99.90
20891;DHT22;10605;52.968;8.844;2022-11-15T10:23:55;14.50;99.90
20891;DHT22;10605;52.968;8.844;2022-11-15T10:26:21;14.50;99.90
20891;DHT22;10605;52.968;8.844;2022-11-15T10:28:49;14.50;99.90
20891;DHT22;10605;52.968;8.844;2022-11-15T10:31:30;14.60;99.90
20891;DHT22;10605;52.968;8.844;2022-11-15T10:34:14;14.80;99.90
20891;DHT22;10605;52.968;8.844;2022-11-15T10:37:00;15.30;99.90
20891;DHT22;10605;52.968;8.844;2022-11-15T10:39:29;16.00;99.90
20891;DHT22;10605;52.968;8.844;2022-11-15T10:41:55;16.00;99.90
20891;DHT22;10605;52.968;8.844;2022-11-15T10:44:29;15.90;99.90
20891;DHT22;10605;52.968;8.844;2022-11-15T10:49:29;15.60;99.90
20891;DHT22;10605;52.968;8.844;2022-11-15T10:52:16;16.00;99.90
20891;DHT22;10605;52.968;8.844;2022-11-15T10:54:52;15.90;99.90
20891;DHT22;10605;52.968;8.844;2022-11-15T10:57:38;16.20;99.90
20891;DHT22;10605;52.968;8.844;2022-11-15T11:00:37;16.40;99.90
20891;DHT22;10605;52.968;8.844;2022-11-15T11:03:19;16.10;99.90
20891;DHT22;10605;52.968;8.844;2022-11-15T11:06:05;16.30;99.90
20891;DHT22;10605;52.968;8.844;2022-11-15T11:08:32;16.60;99.90
20891;DHT22;10605;52.968;8.844;2022-11-15T11:10:59;16.70;99.90
20891;DHT22;10605;52.968;8.844;2022-11-15T11:13:30;16.70;99.90
20891;DHT22;10605;52.968;8.844;2022-11-15T11:19:04;16.60;99.90
20891;DHT22;10605;52.968;8.844;2022-11-15T12:12:49;16.40;99.90
20891;DHT22;10605;52.968;8.844;2022-11-15T12:56:42;16.40;99.90
20891;DHT22;10605;52.968;8.844;2022-11-15T13:00:36;16.20;99.90
20891;DHT22;10605;52.968;8.844;2022-11-15T13:10:35;16.00;99.90
20891;DHT22;10605;52.968;8.844;2022-11-15T13:47:55;15.30;99.90
20891;DHT22;10605;52.968;8.844;2022-11-15T13:55:02;15.10;99.90
20891;DHT22;10605;52.968;8.844;2022-11-15T13:58:21;15.00;99.90
20891;DHT22;10605;52.968;8.844;2022-11-15T14:08:34;14.90;99.90
20891;DHT22;10605;52.968;8.844;2022-11-15T14:46:26;13.80;99.90
20891;DHT22;10605;52.968;8.844;2022-11-15T15:03:46;13.10;99.90
20891;DHT22;10605;52.968;8.844;2022-11-15T15:07:00;13.00;99.90
20891;DHT22;10605;52.968;8.844;2022-11-15T15:17:02;12.50;99.90
20891;DHT22;10605;52.968;8.844;2022-11-15T15:26:38;12.30;99.90
20891;DHT22;10605;52.968;8.844;2022-11-15T15:40:36;11.70;99.90
20891;DHT22;10605;52.968;8.844;2022-11-15T16:01:13;11.40;99.90
20891;DHT22;10605;52.968;8.844;2022-11-15T16:21:53;11.70;99.90
20891;DHT22;10605;52.968;8.844;2022-11-15T16:25:05;11.70;99.90
20891;DHT22;10605;52.968;8.844;2022-11-15T16:31:09;11.70;99.90
20891;DHT22;10605;52.968;8.844;2022-11-15T16:34:25;11.60;99.90
20891;DHT22;10605;52.968;8.844;2022-11-15T16:36:52;11.70;99.90
20891;DHT22;10605;52.968;8.844;2022-11-15T16:53:37;11.30;99.90
20891;DHT22;10605;52.968;8.844;2022-11-15T16:56:43;11.20;99.90
20891;DHT22;10605;52.968;8.844;2022-11-15T16:59:57;11.30;99.90
20891;DHT22;10605;52.968;8.844;2022-11-15T17:03:23;11.40;99.90
20891;DHT22;10605;52.968;8.844;2022-11-15T17:06:36;11.50;99.90
20891;DHT22;10605;52.968;8.844;2022-11-15T17:16:40;11.60;99.90
20891;DHT22;10605;52.968;8.844;2022-11-15T17:19:49;11.70;99.90
20891;DHT22;10605;52.968;8.844;2022-11-15T17:27:03;11.60;99.90
20891;DHT22;10605;52.968;8.844;2022-11-15T17:30:44;11.70;99.90
20891;DHT22;10605;52.968;8.844;2022-11-15T17:37:39;11.80;99.90
20891;DHT22;10605;52.968;8.844;2022-11-15T17:41:03;11.80;99.90
20891;DHT22;10605;52.968;8.844;2022-11-15T17:44:30;11.90;99.90
20891;DHT22;10605;52.968;8.844;2022-11-15T17:47:11;11.90;99.90
20891;DHT22;10605;52.968;8.844;2022-11-15T17:49:39;11.90;99.90
20891;DHT22;10605;52.968;8.844;2022-11-15T17:52:05;12.00;99.90
20891;DHT22;10605;52.968;8.844;2022-11-15T17:54:32;12.00;99.90
20891;DHT22;10605;52.968;8.844;2022-11-15T17:56:58;12.00;99.90
20891;DHT22;10605;52.968;8.844;2022-11-15T17:59:23;12.00;99.90
20891;DHT22;10605;52.968;8.844;2022-11-15T18:01:49;12.00;99.90
20891;DHT22;10605;52.968;8.844;2022-11-15T18:04:15;12.00;99.90
20891;DHT22;10605;52.968;8.844;2022-11-15T18:06:41;11.90;99.90
20891;DHT22;10605;52.968;8.844;2022-11-15T18:09:07;11.90;99.90
20891;DHT22;10605;52.968;8.844;2022-11-15T18:11:36;11.80;99.90
20891;DHT22;10605;52.968;8.844;2022-11-15T18:14:13;11.90;99.90
20891;DHT22;10605;52.968;8.844;2022-11-15T18:16:39;11.80;99.90
20891;DHT22;10605;52.968;8.844;2022-11-15T18:19:06;11.70;99.90
20891;DHT22;10605;52.968;8.844;2022-11-15T18:21:42;11.70;99.90
20891;DHT22;10605;52.968;8.844;2022-11-15T18:24:28;11.70;99.90
20891;DHT22;10605;52.968;8.844;2022-11-15T18:26:54;11.60;99.90
20891;DHT22;10605;52.968;8.844;2022-11-15T18:29:20;11.60;99.90
20891;DHT22;10605;52.968;8.844;2022-11-15T18:31:46;11.50;99.90
20891;DHT22;10605;52.968;8.844;2022-11-15T18:34:14;11.40;99.90
20891;DHT22;10605;52.968;8.844;2022-11-15T18:36:40;11.40;99.90
20891;DHT22;10605;52.968;8.844;2022-11-15T18:39:09;11.40;99.90
20891;DHT22;10605;52.968;8.844;2022-11-15T18:41:41;11.40;99.90
20891;DHT22;10605;52.968;8.844;2022-11-15T18:44:07;11.30;99.90
20891;DHT22;10605;52.968;8.844;2022-11-15T18:46:33;11.20;99.90
20891;DHT22;10605;52.968;8.844;2022-11-15T18:49:00;11.20;99.90
20891;DHT22;10605;52.968;8.844;2022-11-15T18:51:28;11.20;99.90
20891;DHT22;10605;52.968;8.844;2022-11-15T18:53:56;11.20;99.90
20891;DHT22;10605;52.968;8.844;2022-11-15T18:56:24;11.20;99.90
20891;DHT22;10605;52.968;8.844;2022-11-15T18:58:54;11.20;99.90
20891;DHT22;10605;52.968;8.844;2022-11-15T19:01:24;11.30;99.90
20891;DHT22;10605;52.968;8.844;2022-11-15T19:03:53;11.30;99.90
20891;DHT22;10605;52.968;8.844;2022-11-15T19:06:21;11.30;99.90
20891;DHT22;10605;52.968;8.844;2022-11-15T19:08:49;11.30;99.90
20891;DHT22;10605;52.968;8.844;2022-11-15T19:11:24;11.30;99.90
20891;DHT22;10605;52.968;8.844;2022-11-15T19:14:15;11.30;99.90
20891;DHT22;10605;52.968;8.844;2022-11-15T19:16:43;11.20;99.90
20891;DHT22;10605;52.968;8.844;2022-11-15T19:19:12;11.20;99.90
20891;DHT22;10605;52.968;8.844;2022-11-15T19:21:38;11.10;99.90
20891;DHT22;10605;52.968;8.844;2022-11-15T19:24:04;11.20;99.90
20891;DHT22;10605;52.968;8.844;2022-11-15T19:26:30;11.20;99.90
20891;DHT22;10605;52.968;8.844;2022-11-15T19:28:58;11.20;99.90
20891;DHT22;10605;52.968;8.844;2022-11-15T19:31:25;11.20;99.90
20891;DHT22;10605;52.968;8.844;2022-11-15T19:33:58;11.10;99.90
20891;DHT22;10605;52.968;8.844;2022-11-15T19:36:24;11.10;99.90
20891;DHT22;10605;52.968;8.844;2022-11-15T19:38:52;11.10;99.90
20891;DHT22;10605;52.968;8.844;2022-11-15T19:41:20;11.10;99.90
20891;DHT22;10605;52.968;8.844;2022-11-15T19:43:46;11.10;99.90
20891;DHT22;10605;52.968;8.844;2022-11-15T19:46:14;11.10;99.90
20891;DHT22;10605;52.968;8.844;2022-11-15T19:48:40;11.20;99.90
20891;DHT22;10605;52.968;8.844;2022-11-15T19:51:08;11.20;99.90
20891;DHT22;10605;52.968;8.844;2022-11-15T19:53:34;11.20;99.90
20891;DHT22;10605;52.968;8.844;2022-11-15T19:56:06;11.20;99.90
20891;DHT22;10605;52.968;8.844;2022-11-15T19:58:32;11.20;99.90
20891;DHT22;10605;52.968;8.844;2022-11-15T20:01:11;11.20;99.90
20891;DHT22;10605;52.968;8.844;2022-11-15T20:03:37;11.20;99.90
20891;DHT22;10605;52.968;8.844;2022-11-15T20:06:09;11.30;99.90
20891;DHT22;10605;52.968;8.844;2022-11-15T20:08:35;11.20;99.90
20891;DHT22;10605;52.968;8.844;2022-11-15T20:11:01;11.20;99.90
20891;DHT22;10605;52.968;8.844;2022-11-15T20:13:28;11.20;99.90
20891;DHT22;10605;52.968;8.844;2022-11-15T20:15:53;11.30;99.90
20891;DHT22;10605;52.968;8.844;2022-11-15T20:18:20;11.30;99.90
20891;DHT22;10605;52.968;8.844;2022-11-15T20:20:48;11.30;99.90
20891;DHT22;10605;52.968;8.844;2022-11-15T20:23:14;11.40;99.90
20891;DHT22;10605;52.968;8.844;2022-11-15T20:25:43;11.30;99.90
20891;DHT22;10605;52.968;8.844;2022-11-15T20:28:15;11.40;99.90
20891;DHT22;10605;52.968;8.844;2022-11-15T20:30:43;11.40;99.90
20891;DHT22;10605;52.968;8.844;2022-11-15T20:33:10;11.50;99.90
20891;DHT22;10605;52.968;8.844;2022-11-15T20:35:35;11.40;99.90
20891;DHT22;10605;52.968;8.844;2022-11-15T20:38:01;11.40;99.90
20891;DHT22;10605;52.968;8.844;2022-11-15T20:40:27;11.30;99.90
20891;DHT22;10605;52.968;8.844;2022-11-15T20:42:53;11.30;99.90
20891;DHT22;10605;52.968;8.844;2022-11-15T20:45:18;11.30;99.90
20891;DHT22;10605;52.968;8.844;2022-11-15T20:47:44;11.30;99.90
20891;DHT22;10605;52.968;8.844;2022-11-15T20:50:10;11.30;99.90
20891;DHT22;10605;52.968;8.844;2022-11-15T20:52:35;11.20;99.90
20891;DHT22;10605;52.968;8.844;2022-11-15T20:55:01;11.30;99.90
20891;DHT22;10605;52.968;8.844;2022-11-15T20:57:27;11.30;99.90
20891;DHT22;10605;52.968;8.844;2022-11-15T20:59:52;11.30;99.90
20891;DHT22;10605;52.968;8.844;2022-11-15T21:02:18;11.40;99.90
20891;DHT22;10605;52.968;8.844;2022-11-15T21:04:44;11.40;99.90
20891;DHT22;10605;52.968;8.844;2022-11-15T21:07:09;11.40;99.90
20891;DHT22;10605;52.968;8.844;2022-11-15T21:09:35;11.40;99.90
20891;DHT22;10605;52.968;8.844;2022-11-15T21:12:19;11.40;99.90
20891;DHT22;10605;52.968;8.844;2022-11-15T21:14:45;11.40;99.90
20891;DHT22;10605;52.968;8.844;2022-11-15T21:17:14;11.40;99.90
20891;DHT22;10605;52.968;8.844;2022-11-15T21:19:41;11.30;99.90
20891;DHT22;10605;52.968;8.844;2022-11-15T21:22:09;11.40;99.90
20891;DHT22;10605;52.968;8.844;2022-11-15T21:24:36;11.40;99.90
20891;DHT22;10605;52.968;8.844;2022-11-15T21:27:01;11.40;99.90
20891;DHT22;10605;52.968;8.844;2022-11-15T21:29:27;11.40;99.90
20891;DHT22;10605;52.968;8.844;2022-11-15T21:32:00;11.50;99.90
20891;DHT22;10605;52.968;8.844;2022-11-15T21:34:26;11.40;99.90
20891;DHT22;10605;52.968;8.844;2022-11-15T21:36:51;11.40;99.90
20891;DHT22;10605;52.968;8.844;2022-11-15T21:39:17;11.50;99.90
20891;DHT22;10605;52.968;8.844;2022-11-15T21:41:43;11.40;99.90
20891;DHT22;10605;52.968;8.844;2022-11-15T21:44:08;11.50;99.90
20891;DHT22;10605;52.968;8.844;2022-11-15T21:46:34;11.40;99.90
20891;DHT22;10605;52.968;8.844;2022-11-15T21:49:03;11.50;99.90
20891;DHT22;10605;52.968;8.844;2022-11-15T21:51:29;11.40;99.90
20891;DHT22;10605;52.968;8.844;2022-11-15T21:53:56;11.50;99.90